Big Bear Station Historical Data
Daily Summary for March 15, 2019 Units:  English    Metric   Both
Next Day »
Daily Weekly Monthly Yearly Custom
  High: Low: Average:
Temperature: 43.2 °F 22.6 °F 31.5 °F
Dew Point: 22.8 °F 13.8 °F 18.7 °F
Humidity: 78% 39% 60%
Wind Speed: 6.8mph 0.0mph 1.1mph
Wind Gust: -999.0mph - -
Wind- - SW
Pressure: 23.57 in 23.48 in -
Precipitation: 0.00 in    
Historical Graphs
 
 
Tabular Data for March 15, 2019
Time Temperature Dew Point Pressure Wind Wind Speed Wind Gust Humidity Rainfall Rate (Hourly)
00:10 23.5 °F 13.8 °F 23.57 in Calm   -999.0 mph 66% 0.00 in
00:26 23.7 °F 14.3 °F 23.56 in Calm   -999.0 mph 67% 0.00 in
00:41 24.3 °F 14.9 °F 23.56 in Calm   -999.0 mph 67% 0.00 in
00:56 24.3 °F 15.6 °F 23.56 in Calm   -999.0 mph 69% 0.00 in
01:11 23.9 °F 15.2 °F 23.56 in Calm   -999.0 mph 69% 0.00 in
01:26 23.4 °F 15.1 °F 23.56 in Calm   -999.0 mph 70% 0.00 in
01:42 23.9 °F 15.2 °F 23.56 in Calm   -999.0 mph 69% 0.00 in
01:57 24.6 °F 16.2 °F 23.56 in Calm   -999.0 mph 70% 0.00 in
02:12 24.6 °F 16.2 °F 23.56 in Calm   -999.0 mph 70% 0.00 in
02:27 24.3 °F 15.9 °F 23.56 in Calm   -999.0 mph 70% 0.00 in
02:42 24.1 °F 16.4 °F 23.55 in Calm   -999.0 mph 72% 0.00 in
02:58 23.7 °F 16.3 °F 23.55 in Calm   -999.0 mph 73% 0.00 in
03:13 23.9 °F 15.9 °F 23.55 in Calm   -999.0 mph 71% 0.00 in
03:28 24.1 °F 16.1 °F 23.54 in WNW 1.7 mph -999.0 mph 71% 0.00 in
03:43 24.8 °F 16.7 °F 23.54 in Calm   -999.0 mph 71% 0.00 in
03:59 24.8 °F 17.4 °F 23.54 in Calm   -999.0 mph 73% 0.00 in
04:14 24.3 °F 16.6 °F 23.54 in Calm   -999.0 mph 72% 0.00 in
04:29 24.1 °F 16.7 °F 23.54 in Calm   -999.0 mph 73% 0.00 in
04:44 24.1 °F 16.7 °F 23.54 in Calm   -999.0 mph 73% 0.00 in
04:59 24.1 °F 16.7 °F 23.54 in Calm   -999.0 mph 73% 0.00 in
05:15 23.7 °F 16.6 °F 23.54 in Calm   -999.0 mph 74% 0.00 in
05:30 23.2 °F 16.8 °F 23.54 in Calm   -999.0 mph 76% 0.00 in
05:45 23.0 °F 16.6 °F 23.54 in Calm   -999.0 mph 76% 0.00 in
06:00 22.8 °F 17.0 °F 23.54 in Calm   -999.0 mph 78% 0.00 in
06:15 22.6 °F 16.8 °F 23.54 in Calm   -999.0 mph 78% 0.00 in
06:31 22.8 °F 16.7 °F 23.54 in Calm   -999.0 mph 77% 0.00 in
06:46 23.4 °F 17.0 °F 23.54 in Calm   -999.0 mph 76% 0.00 in
07:01 23.4 °F 17.0 °F 23.54 in Calm   -999.0 mph 76% 0.00 in
07:16 23.7 °F 16.9 °F 23.54 in Calm   -999.0 mph 75% 0.00 in
07:31 24.8 °F 17.1 °F 23.54 in East 1.7 mph -999.0 mph 72% 0.00 in
07:47 25.2 °F 17.1 °F 23.54 in Calm   -999.0 mph 71% 0.00 in
08:02 25.9 °F 17.5 °F 23.55 in SSW 2.7 mph -999.0 mph 70% 0.00 in
08:17 27.3 °F 17.8 °F 23.55 in NNW 2.2 mph -999.0 mph 67% 0.00 in
08:32 29.3 °F 17.9 °F 23.54 in Calm   -999.0 mph 62% 0.00 in
08:47 29.5 °F 18.5 °F 23.55 in Calm   -999.0 mph 63% 0.00 in
09:03 29.8 °F 18.0 °F 23.54 in Calm   -999.0 mph 61% 0.00 in
09:18 30.7 °F 17.7 °F 23.54 in NE 3.2 mph -999.0 mph 58% 0.00 in
09:33 31.6 °F 18.1 °F 23.54 in NE 3.7 mph -999.0 mph 57% 0.00 in
09:48 33.1 °F 19.1 °F 23.54 in Calm   -999.0 mph 56% 0.00 in
10:04 33.8 °F 19.3 °F 23.54 in Calm   -999.0 mph 55% 0.00 in
10:19 34.7 °F 20.2 °F 23.54 in ESE 2.2 mph -999.0 mph 55% 0.00 in
10:34 35.4 °F 20.8 °F 23.54 in North 2.2 mph -999.0 mph 55% 0.00 in
10:49 36.1 °F 20.6 °F 23.54 in Calm   -999.0 mph 53% 0.00 in
11:05 38.1 °F 21.6 °F 23.54 in NE 4.7 mph -999.0 mph 51% 0.00 in
11:20 39.7 °F 22.6 °F 23.54 in North 2.7 mph -999.0 mph 50% 0.00 in
11:35 39.9 °F 21.8 °F 23.54 in NNW 3.7 mph -999.0 mph 48% 0.00 in
11:51 39.9 °F 20.8 °F 23.54 in East 2.7 mph -999.0 mph 46% 0.00 in
12:06 42.1 °F 22.3 °F 23.53 in North 4.2 mph -999.0 mph 45% 0.00 in
12:21 41.0 °F 21.8 °F 23.53 in Calm   -999.0 mph 46% 0.00 in
12:37 41.0 °F 19.6 °F 23.53 in ESE 1.7 mph -999.0 mph 42% 0.00 in
12:52 42.4 °F 21.5 °F 23.53 in SSE 2.2 mph -999.0 mph 43% 0.00 in
13:07 42.6 °F 21.7 °F 23.53 in NNE 4.7 mph -999.0 mph 43% 0.00 in
13:22 42.1 °F 20.1 °F 23.53 in Calm   -999.0 mph 41% 0.00 in
13:37 43.2 °F 21.6 °F 23.52 in North 5.8 mph -999.0 mph 42% 0.00 in
13:53 42.4 °F 19.2 °F 23.51 in West 3.2 mph -999.0 mph 39% 0.00 in
14:08 41.5 °F 22.2 °F 23.50 in NE 3.2 mph -999.0 mph 46% 0.00 in
14:24 42.4 °F 20.9 °F 23.50 in North 5.8 mph -999.0 mph 42% 0.00 in
14:39 41.0 °F 22.8 °F 23.50 in NNW 2.7 mph -999.0 mph 48% 0.00 in
14:55 41.5 °F 21.2 °F 23.49 in SSE 3.7 mph -999.0 mph 44% 0.00 in
15:10 42.3 °F 22.5 °F 23.49 in NE 3.7 mph -999.0 mph 45% 0.00 in
15:25 41.0 °F 21.3 °F 23.49 in Calm   -999.0 mph 45% 0.00 in
15:40 42.4 °F 22.0 °F 23.49 in West 2.2 mph -999.0 mph 44% 0.00 in
15:55 41.9 °F 22.1 °F 23.49 in SSE 2.2 mph -999.0 mph 45% 0.00 in
16:11 40.8 °F 22.1 °F 23.49 in NNW 4.7 mph -999.0 mph 47% 0.00 in
16:26 40.5 °F 22.8 °F 23.49 in Calm   -999.0 mph 49% 0.00 in
16:41 39.2 °F 22.6 °F 23.49 in NNW 6.8 mph -999.0 mph 51% 0.00 in
16:56 39.4 °F 21.8 °F 23.49 in West 1.7 mph -999.0 mph 49% 0.00 in
17:12 39.4 °F 20.8 °F 23.49 in NW 4.2 mph -999.0 mph 47% 0.00 in
17:27 40.3 °F 20.6 °F 23.49 in NNW 4.2 mph -999.0 mph 45% 0.00 in
17:42 38.7 °F 20.7 °F 23.48 in Calm   -999.0 mph 48% 0.00 in
17:57 37.4 °F 20.9 °F 23.49 in Calm   -999.0 mph 51% 0.00 in
18:12 36.5 °F 20.1 °F 23.49 in Calm   -999.0 mph 51% 0.00 in
18:28 36.0 °F 19.6 °F 23.49 in North 1.1 mph -999.0 mph 51% 0.00 in
18:43 35.1 °F 19.2 °F 23.49 in ESE 1.7 mph -999.0 mph 52% 0.00 in
18:58 34.2 °F 19.7 °F 23.49 in Calm   -999.0 mph 55% 0.00 in
19:13 33.4 °F 19.4 °F 23.49 in NNW 1.7 mph -999.0 mph 56% 0.00 in
19:28 32.5 °F 19.8 °F 23.50 in Calm   -999.0 mph 59% 0.00 in
19:44 32.0 °F 20.1 °F 23.50 in Calm   -999.0 mph 61% 0.00 in
19:59 31.3 °F 18.6 °F 23.50 in Calm   -999.0 mph 59% 0.00 in
20:14 30.6 °F 19.1 °F 23.51 in Calm   -999.0 mph 62% 0.00 in
20:29 29.5 °F 19.9 °F 23.51 in Calm   -999.0 mph 67% 0.00 in
20:44 28.6 °F 19.0 °F 23.51 in Calm   -999.0 mph 67% 0.00 in
21:00 27.9 °F 18.4 °F 23.51 in Calm   -999.0 mph 67% 0.00 in
21:15 27.1 °F 17.6 °F 23.51 in Calm   -999.0 mph 67% 0.00 in
21:30 27.1 °F 18.6 °F 23.51 in Calm   -999.0 mph 70% 0.00 in
21:45 26.8 °F 18.7 °F 23.52 in Calm   -999.0 mph 71% 0.00 in
22:16 26.6 °F 17.8 °F 23.51 in Calm   -999.0 mph 69% 0.00 in
22:31 27.3 °F 17.1 °F 23.51 in SSE 1.1 mph -999.0 mph 65% 0.00 in
22:46 28.2 °F 16.8 °F 23.51 in Calm   -999.0 mph 62% 0.00 in
23:01 28.6 °F 17.2 °F 23.51 in Calm   -999.0 mph 62% 0.00 in
23:17 28.6 °F 16.8 °F 23.51 in Calm   -999.0 mph 61% 0.00 in
23:32 28.4 °F 17.0 °F 23.51 in Calm   -999.0 mph 62% 0.00 in
23:47 28.0 °F 16.7 °F 23.51 in Calm   -999.0 mph 62% 0.00 in
Big Bear CA Weather